createdAt,value
2018-04-20T00:02:12.440Z,7.73
2018-04-20T00:04:40.002Z,6.20
2018-04-20T00:07:07.557Z,6.10
2018-04-20T00:09:35.179Z,6.97
2018-04-20T00:12:02.750Z,6.67
2018-04-20T00:14:30.365Z,6.83
2018-04-20T00:16:57.961Z,6.37
2018-04-20T00:19:25.537Z,6.90
2018-04-20T00:21:53.130Z,7.30
2018-04-20T00:24:20.686Z,6.60
2018-04-20T00:26:48.326Z,7.10
2018-04-20T00:29:15.926Z,6.50
2018-04-20T00:31:43.493Z,7.63
2018-04-20T00:34:11.089Z,6.80
2018-04-20T00:36:38.665Z,6.57
2018-04-20T00:39:06.218Z,6.93
2018-04-20T00:41:33.815Z,7.03
2018-04-20T00:44:01.431Z,6.90
2018-04-20T00:46:29.106Z,6.90
2018-04-20T00:48:56.733Z,6.90
2018-04-20T00:51:24.328Z,5.90
2018-04-20T00:54:03.835Z,6.33
2018-04-20T00:56:31.428Z,6.80
2018-04-20T00:58:58.984Z,6.70
2018-04-20T01:01:26.580Z,7.40
2018-04-20T01:03:54.174Z,5.90
2018-04-20T01:06:21.811Z,6.50
2018-04-20T01:08:49.466Z,6.10
2018-04-20T01:11:17.041Z,6.33
2018-04-20T01:13:44.615Z,5.70
2018-04-20T01:16:12.173Z,5.80
2018-04-20T01:18:39.726Z,6.30
2018-04-20T01:21:08.081Z,6.30
2018-04-20T01:23:35.637Z,6.57
2018-04-20T01:26:03.253Z,6.83
2018-04-20T01:28:31.627Z,5.17
2018-04-20T01:30:59.264Z,5.07
2018-04-20T01:33:26.847Z,4.90
2018-04-20T01:35:54.453Z,5.47
2018-04-20T01:38:22.050Z,5.17
2018-04-20T01:40:49.631Z,5.20
2018-04-20T01:43:17.264Z,4.80
2018-04-20T01:45:46.375Z,5.00
2018-04-20T01:48:13.924Z,5.03
2018-04-20T01:50:41.506Z,6.23
2018-04-20T01:53:09.102Z,4.80
2018-04-20T01:55:36.704Z,4.90
2018-04-20T01:58:04.312Z,4.80
2018-04-20T02:00:31.908Z,5.00
2018-04-20T02:02:59.544Z,5.10
2018-04-20T02:05:27.199Z,4.90
2018-04-20T02:07:54.796Z,6.13
2018-04-20T02:10:22.412Z,5.00
2018-04-20T02:12:50.047Z,5.03
2018-04-20T02:15:17.658Z,5.10
2018-04-20T02:17:45.261Z,4.70
2018-04-20T02:20:12.814Z,5.10
2018-04-20T02:22:41.171Z,5.10
2018-04-20T02:25:08.705Z,4.87
2018-04-20T02:27:36.300Z,5.40
2018-04-20T02:30:03.877Z,5.10
2018-04-20T02:32:31.473Z,5.40
2018-04-20T02:34:59.088Z,4.80
2018-04-20T02:37:26.683Z,4.90
2018-04-20T02:39:54.284Z,5.50
2018-04-20T02:42:21.834Z,5.40
2018-04-20T02:44:49.410Z,5.13
2018-04-20T02:47:17.091Z,4.80
2018-04-20T02:49:44.661Z,5.37
2018-04-20T02:52:12.257Z,5.27
2018-04-20T02:54:39.834Z,5.33
2018-04-20T02:57:07.429Z,4.80
2018-04-20T02:59:35.785Z,4.90
2018-04-20T03:02:03.403Z,5.70
2018-04-20T03:04:31.754Z,5.93
2018-04-20T03:06:59.331Z,6.57
2018-04-20T03:09:26.906Z,6.03
2018-04-20T03:11:54.481Z,5.73
2018-04-20T03:14:22.059Z,5.93
2018-04-20T03:16:49.662Z,5.97
2018-04-20T03:19:17.248Z,6.40
2018-04-20T03:21:44.883Z,6.00
2018-04-20T03:24:12.500Z,5.37
2018-04-20T03:26:40.118Z,5.30
2018-04-20T03:29:07.689Z,6.07
2018-04-20T03:31:35.300Z,6.33
2018-04-20T03:34:02.921Z,6.00
2018-04-20T03:36:30.517Z,6.53
2018-04-20T03:38:58.112Z,6.07
2018-04-20T03:41:26.429Z,5.97
2018-04-20T03:43:54.003Z,5.43
2018-04-20T03:46:21.580Z,6.00
2018-04-20T03:48:49.155Z,5.60
2018-04-20T03:51:16.765Z,6.10
2018-04-20T03:53:44.346Z,5.17
2018-04-20T03:56:12.700Z,5.70
2018-04-20T03:58:40.316Z,5.87
2018-04-20T04:01:07.892Z,5.83
2018-04-20T04:03:35.458Z,5.77
2018-04-20T04:06:03.033Z,6.13
2018-04-20T04:08:30.618Z,5.50
2018-04-20T04:10:59.690Z,5.20
2018-04-20T04:13:45.335Z,5.50
2018-04-20T04:16:25.503Z,5.37
2018-04-20T04:24:44.491Z,6.00
2018-04-20T04:27:27.820Z,5.50
2018-04-20T04:29:58.191Z,5.60
2018-04-20T04:32:37.631Z,5.33
2018-04-20T04:35:08.425Z,5.73
2018-04-20T04:40:20.276Z,6.13
2018-04-20T04:42:47.819Z,5.20
2018-04-20T04:45:17.559Z,5.70
2018-04-20T04:47:45.438Z,5.70
2018-04-20T04:50:13.114Z,6.10
2018-04-20T04:52:40.836Z,6.40
2018-04-20T04:55:08.563Z,5.90
2018-04-20T04:57:36.703Z,5.87
2018-04-20T05:00:04.597Z,6.40
2018-04-20T05:02:32.717Z,6.10
2018-04-20T05:05:00.350Z,6.23
2018-04-20T05:07:29.193Z,6.13
2018-04-20T05:09:56.984Z,6.77
2018-04-20T05:12:25.053Z,7.03
2018-04-20T05:14:54.266Z,6.30
2018-04-20T05:17:22.229Z,6.80
2018-04-20T05:19:49.867Z,6.80
2018-04-20T05:22:19.314Z,6.87
2018-04-20T05:24:46.991Z,6.23
2018-04-20T05:27:15.735Z,6.67
2018-04-20T05:29:43.496Z,6.27
2018-04-20T05:32:11.155Z,6.00
2018-04-20T05:34:39.677Z,7.50
2018-04-20T05:37:07.566Z,6.57
2018-04-20T05:39:35.196Z,6.77
2018-04-20T05:42:03.607Z,6.73
2018-04-20T05:44:31.167Z,5.90
2018-04-20T05:47:00.308Z,6.77
2018-04-20T05:49:27.898Z,5.97
2018-04-20T05:51:55.624Z,5.47
2018-04-20T05:54:23.988Z,5.77
2018-04-20T05:56:51.566Z,6.83
2018-04-20T05:59:19.260Z,6.10
2018-04-20T06:01:48.497Z,5.87
2018-04-20T06:04:16.178Z,6.20
2018-04-20T06:06:43.766Z,6.20
2018-04-20T06:09:11.785Z,5.70
2018-04-20T06:11:39.496Z,5.93
2018-04-20T06:14:07.111Z,5.57
2018-04-20T06:16:34.839Z,5.60
2018-04-20T06:19:02.625Z,5.70
2018-04-20T06:21:30.595Z,4.90
2018-04-20T06:23:58.272Z,5.43
2018-04-20T06:26:26.446Z,5.60
2018-04-20T06:28:55.684Z,5.20
2018-04-20T06:31:23.718Z,4.70
2018-04-20T06:33:51.553Z,4.10
2018-04-20T06:36:20.783Z,4.53
2018-04-20T06:39:09.486Z,3.70
2018-04-20T06:41:37.226Z,3.90
2018-04-20T06:44:05.156Z,4.10
2018-04-20T06:46:35.497Z,4.10
2018-04-20T06:49:03.902Z,3.93
2018-04-20T06:51:31.845Z,4.53
2018-04-20T06:53:59.526Z,3.20
2018-04-20T06:56:27.228Z,3.73
2018-04-20T06:58:55.031Z,4.13
2018-04-20T07:01:22.968Z,3.80
2018-04-20T07:03:51.312Z,3.60
2018-04-20T07:06:19.757Z,3.43
2018-04-20T07:08:48.069Z,3.20
2018-04-20T07:11:15.779Z,3.10
2018-04-20T07:13:43.314Z,3.17
2018-04-20T07:16:10.994Z,3.00
2018-04-20T07:18:38.762Z,3.67
2018-04-20T07:21:06.459Z,3.00
2018-04-20T07:23:34.314Z,3.00
2018-04-20T07:26:01.993Z,2.80
2018-04-20T07:28:29.664Z,3.23
2018-04-20T07:30:57.301Z,3.33
2018-04-20T07:33:25.396Z,3.17
2018-04-20T07:35:54.091Z,3.07
2018-04-20T07:38:21.726Z,3.30
2018-04-20T07:40:49.341Z,3.07
2018-04-20T07:43:17.957Z,3.08
2018-04-20T07:45:46.292Z,3.80
2018-04-20T07:48:13.967Z,2.93
2018-04-20T07:50:41.787Z,3.17
2018-04-20T07:53:10.218Z,3.03
2018-04-20T07:55:37.834Z,2.62
2018-04-20T07:58:05.469Z,2.80
2018-04-20T08:00:33.172Z,3.20
2018-04-20T08:03:00.800Z,2.80
2018-04-20T08:05:28.990Z,3.00
2018-04-20T08:07:57.010Z,2.97
2018-04-20T08:10:25.462Z,3.67
2018-04-20T08:12:53.196Z,3.10
2018-04-20T08:15:21.049Z,2.50
2018-04-20T08:17:49.146Z,2.70
2018-04-20T08:20:16.906Z,2.83
2018-04-20T08:22:44.882Z,2.92
2018-04-20T08:25:12.897Z,3.00
2018-04-20T08:27:40.492Z,2.80
2018-04-20T08:30:08.108Z,3.55
2018-04-20T08:32:38.585Z,2.85
2018-04-20T08:35:07.206Z,3.28
2018-04-20T08:37:35.674Z,2.80
2018-04-20T08:40:03.289Z,2.55
2018-04-20T08:42:31.685Z,3.00
2018-04-20T08:44:59.300Z,3.00
2018-04-20T08:47:26.855Z,2.92
2018-04-20T08:49:54.432Z,3.42
2018-04-20T08:52:22.066Z,2.60
2018-04-20T08:54:50.402Z,2.70
2018-04-20T08:57:18.017Z,2.50
2018-04-20T08:59:45.592Z,2.67
2018-04-20T09:02:13.908Z,3.00
2018-04-20T09:04:41.462Z,2.55
2018-04-20T09:07:09.766Z,3.60
2018-04-20T09:09:37.375Z,2.92
2018-04-20T09:12:05.022Z,2.72
2018-04-20T09:14:32.613Z,3.03
2018-04-20T09:17:00.150Z,2.90
2018-04-20T09:19:28.491Z,2.90
2018-04-20T09:21:56.092Z,3.37
2018-04-20T09:24:23.695Z,3.87
2018-04-20T09:26:51.846Z,3.17
2018-04-20T09:29:19.376Z,3.30
2018-04-20T09:31:47.039Z,3.00
2018-04-20T09:34:14.865Z,3.25
2018-04-20T09:36:42.388Z,4.05
2018-04-20T09:39:09.925Z,3.85
2018-04-20T09:41:37.597Z,4.53
2018-04-20T09:44:05.892Z,5.53
2018-04-20T09:46:34.237Z,5.93
2018-04-20T09:49:01.738Z,7.00
2018-04-20T09:51:29.486Z,7.70
2018-04-20T09:53:57.029Z,8.60
2018-04-20T09:56:24.597Z,9.93
2018-04-20T09:58:52.100Z,7.37
2018-04-20T10:01:24.616Z,7.77
2018-04-20T10:03:57.102Z,7.93
2018-04-20T10:06:24.671Z,8.30
2018-04-20T10:08:52.379Z,7.67
2018-04-20T10:11:20.705Z,7.93
2018-04-20T10:13:48.213Z,8.60
2018-04-20T10:16:15.729Z,8.87
2018-04-20T10:18:43.240Z,7.80
2018-04-20T10:21:10.803Z,8.93
2018-04-20T10:23:38.326Z,8.80
2018-04-20T10:26:06.660Z,9.37
2018-04-20T10:28:34.174Z,9.17
2018-04-20T10:31:01.733Z,8.67
2018-04-20T10:33:29.236Z,8.73
2018-04-20T10:35:56.811Z,9.97
2018-04-20T10:38:24.319Z,10.00
2018-04-20T10:40:51.841Z,9.20
2018-04-20T10:43:20.132Z,9.37
2018-04-20T10:45:48.451Z,9.83
2018-04-20T10:48:15.955Z,10.47
2018-04-20T10:50:43.513Z,9.27
2018-04-20T10:53:11.100Z,9.20
2018-04-20T10:55:38.658Z,9.93
2018-04-20T10:58:06.262Z,10.27
2018-04-20T11:00:33.920Z,8.93
2018-04-20T11:03:01.451Z,8.30
2018-04-20T11:05:28.991Z,9.60
2018-04-20T11:07:57.325Z,9.63
2018-04-20T11:10:24.933Z,8.30
2018-04-20T11:12:52.457Z,9.10
2018-04-20T11:15:19.967Z,8.50
2018-04-20T11:17:47.553Z,6.47
2018-04-20T11:20:15.125Z,6.37
2018-04-20T11:22:42.795Z,7.13
2018-04-20T11:25:10.446Z,6.97
2018-04-20T11:27:38.067Z,5.70
2018-04-20T11:30:06.417Z,6.27
2018-04-20T11:32:33.973Z,5.10
2018-04-20T11:35:01.489Z,5.57
2018-04-20T11:37:29.805Z,5.33
2018-04-20T11:39:57.332Z,4.67
2018-04-20T11:42:24.861Z,4.93
2018-04-20T11:44:52.389Z,6.30
2018-04-20T11:47:20.746Z,4.27
2018-04-20T11:49:48.340Z,4.23
2018-04-20T11:52:15.869Z,4.50
2018-04-20T11:54:43.386Z,6.27
2018-04-20T11:57:11.072Z,6.73
2018-04-20T11:59:38.646Z,5.37
2018-04-20T12:02:06.219Z,4.70
2018-04-20T12:04:33.747Z,6.40
2018-04-20T12:07:01.411Z,4.80
2018-04-20T12:09:28.962Z,3.70
2018-04-20T12:11:56.534Z,4.00
2018-04-20T12:14:24.096Z,3.80
2018-04-20T12:16:52.433Z,4.00
2018-04-20T12:19:19.982Z,4.17
2018-04-20T12:21:47.569Z,4.87
2018-04-20T12:24:15.087Z,4.97
2018-04-20T12:26:43.713Z,4.90
2018-04-20T12:29:11.349Z,5.80
2018-04-20T12:31:38.907Z,4.47
2018-04-20T12:34:06.453Z,4.87
2018-04-20T12:36:33.981Z,3.43
2018-04-20T12:39:02.305Z,4.30
2018-04-20T12:41:29.891Z,4.03
2018-04-20T12:43:57.472Z,5.63
2018-04-20T12:46:25.172Z,5.00
2018-04-20T12:48:52.777Z,5.83
2018-04-20T12:51:21.123Z,6.20
2018-04-20T12:53:48.758Z,5.37
2018-04-20T12:56:16.268Z,5.53
2018-04-20T12:58:43.970Z,6.30
2018-04-20T13:01:12.275Z,6.90
2018-04-20T13:03:40.600Z,5.73
2018-04-20T13:06:08.250Z,5.97
2018-04-20T13:08:36.083Z,5.03
2018-04-20T13:11:03.659Z,5.70
2018-04-20T13:13:31.580Z,5.20
2018-04-20T13:15:59.147Z,5.40
2018-04-20T13:18:26.950Z,5.47
2018-04-20T13:20:54.456Z,4.33
2018-04-20T13:23:22.347Z,4.77
2018-04-20T13:25:49.859Z,5.00
2018-04-20T13:28:17.399Z,5.60
2018-04-20T13:30:45.684Z,4.33
2018-04-20T13:33:13.720Z,5.60
2018-04-20T13:35:41.230Z,4.03
2018-04-20T13:38:08.810Z,5.37
2018-04-20T13:40:36.425Z,4.60
2018-04-20T13:43:04.061Z,4.10
2018-04-20T13:45:32.274Z,4.00
2018-04-20T13:47:59.809Z,4.57
2018-04-20T13:50:27.332Z,4.80
2018-04-20T13:52:54.856Z,4.60
2018-04-20T13:55:22.394Z,5.30
2018-04-20T13:57:50.000Z,4.60
2018-04-20T14:00:17.536Z,4.50
2018-04-20T14:02:45.992Z,4.60
2018-04-20T14:05:13.501Z,5.20
2018-04-20T14:07:41.057Z,5.10
2018-04-20T14:10:09.249Z,4.93
2018-04-20T14:12:36.929Z,4.87
2018-04-20T14:15:04.508Z,5.43
2018-04-20T14:17:32.400Z,4.83
2018-04-20T14:20:00.005Z,4.90
2018-04-20T14:22:28.371Z,5.60
2018-04-20T14:24:55.949Z,5.70
2018-04-20T14:27:23.462Z,4.93
2018-04-20T14:29:51.138Z,5.70
2018-04-20T14:32:18.674Z,5.00
2018-04-20T14:34:46.483Z,5.33
2018-04-20T14:37:14.035Z,4.93
2018-04-20T14:39:41.780Z,5.33
2018-04-20T14:42:09.376Z,4.37
2018-04-20T14:44:36.967Z,5.00
2018-04-20T14:47:05.306Z,5.20
2018-04-20T14:49:32.825Z,5.53
2018-04-20T14:52:01.132Z,4.60
2018-04-20T14:54:28.655Z,5.37
2018-04-20T14:56:56.201Z,5.37
2018-04-20T14:59:23.716Z,4.83
2018-04-20T15:01:51.297Z,4.90
2018-04-20T15:04:19.589Z,5.10
2018-04-20T15:06:47.872Z,4.23
2018-04-20T15:09:16.176Z,4.30
2018-04-20T15:11:43.712Z,5.30
2018-04-20T15:14:11.247Z,5.23
2018-04-20T15:16:38.741Z,4.70
2018-04-20T15:19:06.281Z,4.33
2018-04-20T15:21:33.786Z,4.90
2018-04-20T15:24:01.439Z,5.23
2018-04-20T15:26:28.998Z,4.23
2018-04-20T15:28:56.520Z,4.77
2018-04-20T15:31:24.025Z,5.50
2018-04-20T15:33:51.545Z,4.57
2018-04-20T15:36:19.130Z,4.23
2018-04-20T15:38:46.917Z,5.37
2018-04-20T15:41:14.623Z,5.73
2018-04-20T15:43:43.498Z,5.30
2018-04-20T15:46:11.022Z,5.13
2018-04-20T15:48:38.925Z,5.37
2018-04-20T15:51:06.486Z,5.30
2018-04-20T15:53:34.168Z,5.17
2018-04-20T15:56:01.745Z,4.50
2018-04-20T15:58:29.367Z,4.73
2018-04-20T16:00:56.937Z,5.10
2018-04-20T16:03:25.516Z,5.20
2018-04-20T16:05:53.887Z,4.57
2018-04-20T16:08:21.426Z,4.80
2018-04-20T16:10:49.064Z,5.23
2018-04-20T16:13:17.385Z,4.77
2018-04-20T16:15:45.018Z,6.27
2018-04-20T16:18:13.431Z,4.87
2018-04-20T16:20:40.994Z,4.97
2018-04-20T16:23:08.617Z,5.60
2018-04-20T16:25:36.219Z,4.80
2018-04-20T16:28:03.772Z,4.93
2018-04-20T16:30:31.317Z,4.70
2018-04-20T16:32:58.962Z,5.10
2018-04-20T16:35:26.561Z,5.20
2018-04-20T16:37:54.510Z,5.23
2018-04-20T16:40:22.902Z,5.10
2018-04-20T16:42:51.742Z,5.10
2018-04-20T16:45:19.305Z,5.13
2018-04-20T16:47:46.820Z,4.67
2018-04-20T16:50:14.369Z,5.20
2018-04-20T16:52:41.896Z,4.57
2018-04-20T16:55:09.579Z,5.13
2018-04-20T16:57:37.164Z,5.63
2018-04-20T17:00:04.788Z,5.00
2018-04-20T17:02:32.384Z,4.60
2018-04-20T17:05:00.008Z,4.93
2018-04-20T17:07:27.844Z,7.93
2018-04-20T17:09:55.547Z,7.43
2018-04-20T17:12:23.329Z,5.90
2018-04-20T17:14:51.004Z,5.57
2018-04-20T17:17:18.564Z,5.00
2018-04-20T17:19:46.121Z,3.50
2018-04-20T17:22:13.684Z,5.10
2018-04-20T17:24:41.281Z,5.20
2018-04-20T17:27:09.081Z,5.20
2018-04-20T17:29:36.987Z,5.53
2018-04-20T17:32:04.793Z,5.13
2018-04-20T17:34:32.327Z,5.00
2018-04-20T17:36:59.878Z,5.20
2018-04-20T17:39:27.498Z,5.43
2018-04-20T17:41:55.802Z,5.43
2018-04-20T17:44:23.398Z,5.37
2018-04-20T17:46:51.073Z,4.73
2018-04-20T17:49:18.763Z,5.30
2018-04-20T17:51:46.384Z,5.30
2018-04-20T17:54:14.852Z,5.47
2018-04-20T17:56:42.489Z,5.00
2018-04-20T17:59:10.053Z,5.23
2018-04-20T18:01:37.857Z,5.13
2018-04-20T18:04:05.377Z,5.87
2018-04-20T18:06:32.940Z,5.20
2018-04-20T18:09:01.297Z,6.17
2018-04-20T18:11:28.951Z,6.17
2018-04-20T18:13:56.644Z,5.47
2018-04-20T18:16:24.409Z,7.23
2018-04-20T18:18:52.057Z,6.97
2018-04-20T18:21:19.603Z,11.53
2018-04-20T18:23:47.947Z,9.87
2018-04-20T18:26:16.374Z,11.37
2018-04-20T18:28:43.930Z,12.10
2018-04-20T18:31:11.752Z,14.10
2018-04-20T18:33:39.278Z,11.63
2018-04-20T18:36:06.899Z,15.07
2018-04-20T18:38:34.672Z,14.00
2018-04-20T18:41:02.598Z,14.27
2018-04-20T18:43:30.269Z,15.07
2018-04-20T18:45:57.977Z,14.73
2018-04-20T18:48:25.591Z,14.17
2018-04-20T18:50:53.173Z,15.50
2018-04-20T18:53:20.704Z,14.40
2018-04-20T18:55:50.388Z,16.20
2018-04-20T18:58:17.936Z,17.07
2018-04-20T19:00:45.551Z,16.53
2018-04-20T19:03:13.474Z,16.50
2018-04-20T19:05:41.062Z,17.43
2018-04-20T19:08:08.637Z,61.93
2018-04-20T19:10:36.191Z,63.17
2018-04-20T19:13:03.760Z,30.90
2018-04-20T19:15:31.304Z,88.03
2018-04-20T19:17:58.841Z,53.53
2018-04-20T19:20:26.442Z,54.60
2018-04-20T19:22:54.031Z,27.33
2018-04-20T19:25:22.378Z,31.63
2018-04-20T19:27:49.932Z,23.97
2018-04-20T19:30:17.499Z,20.17
2018-04-20T19:32:45.074Z,20.33
2018-04-20T19:35:12.650Z,21.90
2018-04-20T19:37:40.242Z,22.10
2018-04-20T19:40:07.804Z,21.53
2018-04-20T19:42:35.361Z,21.97
2018-04-20T19:45:02.894Z,22.90
2018-04-20T19:47:31.197Z,23.00
2018-04-20T19:49:59.491Z,23.73
2018-04-20T19:52:27.039Z,25.80
2018-04-20T19:54:54.676Z,23.60
2018-04-20T19:57:22.249Z,22.57
2018-04-20T19:59:49.786Z,22.53
2018-04-20T20:02:17.400Z,22.27
2018-04-20T20:04:44.940Z,21.97
2018-04-20T20:07:12.553Z,23.20
2018-04-20T20:09:40.148Z,23.00
2018-04-20T20:12:07.763Z,23.50
2018-04-20T20:14:35.318Z,20.47
2018-04-20T20:17:03.634Z,22.57
2018-04-20T20:19:31.179Z,20.33
2018-04-20T20:21:58.744Z,22.43
2018-04-20T20:24:26.273Z,22.60
2018-04-20T20:26:53.836Z,21.60
2018-04-20T20:29:21.392Z,19.97
2018-04-20T20:31:48.931Z,22.17
2018-04-20T20:34:17.295Z,24.63
2018-04-20T20:36:44.919Z,21.90
2018-04-20T20:39:12.491Z,21.10
2018-04-20T20:41:40.050Z,22.43
2018-04-20T20:44:07.626Z,21.60
2018-04-20T20:46:35.170Z,21.70
2018-04-20T20:49:02.716Z,23.33
2018-04-20T20:51:30.252Z,20.40
2018-04-20T20:53:57.782Z,22.10
2018-04-20T20:56:25.348Z,21.67
2018-04-20T20:58:52.906Z,21.07
2018-04-20T21:01:20.843Z,23.10
2018-04-20T21:03:48.506Z,21.53
2018-04-20T21:06:16.049Z,20.20
2018-04-20T21:08:43.681Z,22.23
2018-04-20T21:11:11.207Z,24.13
2018-04-20T21:13:39.542Z,22.20
2018-04-20T21:16:07.104Z,21.87
2018-04-20T21:18:34.647Z,22.13
2018-04-20T21:21:02.928Z,22.10
2018-04-20T21:23:30.463Z,20.90
2018-04-20T21:25:58.005Z,21.33
2018-04-20T21:28:25.545Z,21.20
2018-04-20T21:30:53.840Z,23.10
2018-04-20T21:33:22.156Z,21.13
2018-04-20T21:35:49.672Z,20.40
2018-04-20T21:38:17.217Z,21.03
2018-04-20T21:40:44.784Z,19.97
2018-04-20T21:43:12.312Z,21.10
2018-04-20T21:45:40.594Z,21.37
2018-04-20T21:48:08.132Z,24.83
2018-04-20T21:50:35.654Z,24.03
2018-04-20T21:53:03.961Z,20.00
2018-04-20T21:55:31.507Z,20.90
2018-04-20T21:57:59.821Z,21.50
2018-04-20T22:00:27.357Z,20.73
2018-04-20T22:02:54.943Z,21.60
2018-04-20T22:05:23.268Z,22.60
2018-04-20T22:07:50.827Z,24.07
2018-04-20T22:10:18.420Z,21.87
2018-04-20T22:12:45.975Z,23.43
2018-04-20T22:15:13.509Z,24.17
2018-04-20T22:17:41.064Z,24.10
2018-04-20T22:20:08.602Z,24.73
2018-04-20T22:22:36.158Z,24.37
2018-04-20T22:25:03.687Z,24.90
2018-04-20T22:27:31.282Z,22.43
2018-04-20T22:29:58.794Z,21.50
2018-04-20T22:32:26.318Z,21.80
2018-04-20T22:34:54.645Z,22.83
2018-04-20T22:37:22.185Z,22.10
2018-04-20T22:39:50.511Z,23.07
2018-04-20T22:42:18.072Z,23.27
2018-04-20T22:44:45.608Z,21.80
2018-04-20T22:47:13.134Z,22.87
2018-04-20T22:49:40.698Z,23.07
2018-04-20T22:52:08.232Z,22.40
2018-04-20T22:54:36.549Z,25.13
2018-04-20T22:57:04.084Z,22.30
2018-04-20T22:59:32.431Z,23.30
2018-04-20T23:01:59.986Z,26.20
2018-04-20T23:04:27.514Z,27.40
2018-04-20T23:06:55.013Z,26.63
2018-04-20T23:09:23.348Z,27.80
2018-04-20T23:11:50.869Z,27.87
2018-04-20T23:14:19.273Z,25.60
2018-04-20T23:16:46.869Z,28.20
2018-04-20T23:19:14.409Z,28.33
2018-04-20T23:21:42.689Z,28.27
2018-04-20T23:24:11.044Z,28.47
2018-04-20T23:26:38.560Z,30.07
2018-04-20T23:29:06.857Z,32.00
2018-04-20T23:31:34.443Z,30.70
2018-04-20T23:34:01.982Z,31.40
2018-04-20T23:36:30.263Z,30.33
2018-04-20T23:38:57.791Z,31.93
2018-04-20T23:41:25.318Z,31.70
2018-04-20T23:43:53.662Z,34.77
2018-04-20T23:46:21.182Z,31.10
2018-04-20T23:48:49.497Z,29.70
2018-04-20T23:51:17.036Z,31.93
2018-04-20T23:53:45.372Z,29.67
2018-04-20T23:56:12.912Z,30.90
2018-04-20T23:58:41.187Z,33.70
